Time;durP1;ratioP1;P1;durP2;ratioP2;P2;SDS_P1;SDS_P2;PMS_P1;PMS_P2;Temp;Humidity;BMP_temperature;BMP_pressure;BME280_temperature;BME280_humidity;BME280_pressure;Samples;Min_cycle;Max_cycle;Signal;HPM_P1;HPM_P2
2023/10/09 00:02:12;;;;;;;10.77;5.88;;;;;;;13.16;52.05;96087.22;4926965;29;20072;-79
2023/10/09 00:04:41;;;;;;;11.32;5.88;;;;;;;13.10;52.26;96080.75;4913106;29;20032;-78
2023/10/09 00:07:08;;;;;;;14.38;7.07;;;;;;;13.07;52.14;96081.13;4903954;29;20039;-79
2023/10/09 00:09:46;;;;;;;12.63;6.82;;;;;;;12.96;51.82;96077.03;4920804;29;20537;-78
2023/10/09 00:12:16;;;;;;;12.27;6.82;;;;;;;12.93;52.68;96072.84;4890534;29;21053;-79
2023/10/09 00:14:41;;;;;;;10.82;5.55;;;;;;;12.95;53.07;96074.53;4926094;29;20138;-79
2023/10/09 00:19:38;;;;;;;12.90;5.50;;;;;;;12.81;53.86;96063.63;4907999;29;20076;-79
2023/10/09 00:22:04;;;;;;;13.20;6.13;;;;;;;12.71;54.49;96068.41;4920132;29;20043;-79
2023/10/09 00:24:33;;;;;;;12.65;5.75;;;;;;;12.65;54.43;96053.94;4904917;29;20046;-79
2023/10/09 00:27:12;;;;;;;10.13;5.80;;;;;;;12.62;54.71;96057.75;4886934;29;20048;-79
2023/10/09 00:29:44;;;;;;;11.85;6.00;;;;;;;12.53;55.18;96053.50;4895333;29;20031;-78
2023/10/09 00:32:32;;;;;;;13.80;6.20;;;;;;;12.47;55.59;96054.22;4900282;29;20038;-79
2023/10/09 00:34:59;;;;;;;11.73;6.07;;;;;;;12.36;56.18;96059.00;4909555;29;20055;-79
2023/10/09 00:37:33;;;;;;;11.00;5.90;;;;;;;12.47;55.38;96055.06;4927156;29;20153;-80
2023/10/09 00:39:59;;;;;;;10.13;6.03;;;;;;;12.64;54.09;96058.44;4891512;29;20027;-78
2023/10/09 00:42:36;;;;;;;9.32;5.63;;;;;;;12.58;54.91;96056.47;4926252;29;20064;-79
2023/10/09 00:45:05;;;;;;;12.27;5.83;;;;;;;12.57;55.15;96062.00;4934501;29;20744;-79
2023/10/09 00:47:34;;;;;;;13.85;6.20;;;;;;;12.64;54.99;96049.56;4921286;29;20287;-79
2023/10/09 00:50:25;;;;;;;10.98;6.05;;;;;;;12.71;54.01;96058.53;4907936;29;20050;-78
2023/10/09 00:53:01;;;;;;;13.38;5.25;;;;;;;12.52;53.23;96058.00;4900307;29;20039;-79
2023/10/09 00:58:09;;;;;;;10.73;5.20;;;;;;;12.44;52.20;96038.59;4909458;29;20048;-78
2023/10/09 01:03:18;;;;;;;10.65;4.97;;;;;;;12.41;51.79;96045.13;4915116;29;20185;-78
2023/10/09 01:11:09;;;;;;;7.85;4.88;;;;;;;12.54;50.97;96039.13;4929540;29;20074;-79
2023/10/09 01:14:21;;;;;;;8.07;4.70;;;;;;;12.49;51.31;96037.03;4909979;29;20050;-79
2023/10/09 01:16:31;;;;;;;9.48;5.20;;;;;;;12.25;51.80;96028.22;4915029;29;20709;-79
2023/10/09 01:18:57;;;;;;;12.38;4.95;;;;;;;12.17;51.71;96020.25;4909942;29;20098;-79
2023/10/09 01:21:26;;;;;;;15.27;5.15;;;;;;;12.22;51.56;96023.22;4914854;29;20910;-79
2023/10/09 01:24:03;;;;;;;11.55;4.93;;;;;;;12.41;51.40;96021.09;4925946;29;20050;-78
2023/10/09 01:26:33;;;;;;;8.83;4.93;;;;;;;12.36;51.34;96021.63;4935307;29;20042;-79
2023/10/09 01:29:00;;;;;;;8.85;4.53;;;;;;;12.42;50.80;96020.88;4914586;29;20290;-79
2023/10/09 01:31:37;;;;;;;8.45;4.40;;;;;;;12.36;51.24;96024.28;4933369;29;20043;-79
2023/10/09 01:34:03;;;;;;;10.97;5.43;;;;;;;12.55;50.90;96019.47;4910805;29;20764;-79
2023/10/09 01:36:32;;;;;;;9.90;5.07;;;;;;;12.14;52.07;96020.63;4934925;29;20916;-79
2023/10/09 01:39:07;;;;;;;;;;;;;;;12.42;50.95;96018.22;4925534;29;20095;-78
2023/10/09 01:41:34;;;;;;;11.50;4.57;;;;;;;12.37;51.02;96025.94;4931974;29;20019;-79
2023/10/09 01:44:11;;;;;;;13.68;5.10;;;;;;;12.30;51.38;96019.66;4914089;29;20083;-79
2023/10/09 01:46:37;;;;;;;12.43;5.00;;;;;;;12.32;51.05;96016.81;4914400;29;20077;-79
2023/10/09 01:49:08;;;;;;;8.27;4.68;;;;;;;12.39;51.12;96015.91;4913444;29;20496;-79
2023/10/09 01:51:38;;;;;;;9.48;4.45;;;;;;;12.35;50.63;96019.97;4930612;29;20170;-78
2023/10/09 01:54:04;;;;;;;9.23;4.90;;;;;;;12.52;50.68;96028.63;4907260;29;20081;-78
2023/10/09 01:56:29;;;;;;;9.70;5.00;;;;;;;12.29;51.26;96018.00;4927286;29;20046;-79
2023/10/09 01:58:57;;;;;;;9.95;4.80;;;;;;;11.97;52.31;96018.00;4910189;29;20078;-79
2023/10/09 02:01:23;;;;;;;8.95;4.65;;;;;;;11.93;52.27;96013.22;4905281;29;20058;-78
2023/10/09 02:03:51;;;;;;;9.05;5.03;;;;;;;12.10;51.71;96011.31;4913844;29;20035;-78
2023/10/09 02:06:32;;;;;;;9.82;4.82;;;;;;;12.48;51.14;96021.19;4925646;29;20047;-78
2023/10/09 02:08:57;;;;;;;11.35;4.72;;;;;;;12.44;50.82;96014.56;4901286;29;20046;-79
2023/10/09 02:11:41;;;;;;;8.55;4.28;;;;;;;12.19;51.49;96017.41;4891183;29;20050;-78
2023/10/09 02:14:19;;;;;;;11.77;4.25;;;;;;;11.87;52.42;96017.44;4938894;29;20043;-78
2023/10/09 02:17:06;;;;;;;11.70;4.80;;;;;;;12.36;51.27;96010.09;4923479;29;20566;-79
2023/10/09 02:19:34;;;;;;;9.10;4.87;;;;;;;12.20;51.37;96005.72;4921935;29;20099;-79
2023/10/09 02:22:11;;;;;;;10.75;4.25;;;;;;;12.54;50.61;96004.44;4915310;29;20067;-79
2023/10/09 02:29:59;;;;;;;11.48;4.82;;;;;;;12.42;50.93;95974.69;4903539;29;20287;-78
2023/10/09 02:32:26;;;;;;;12.00;4.90;;;;;;;12.44;50.92;95967.28;4919806;29;20031;-79
2023/10/09 02:34:53;;;;;;;9.02;4.63;;;;;;;12.36;50.95;95962.03;4910508;29;20039;-79
2023/10/09 02:37:23;;;;;;;11.63;4.60;;;;;;;12.31;51.44;95962.59;4920361;29;20035;-78
2023/10/09 02:39:52;;;;;;;8.35;4.45;;;;;;;12.32;51.18;95976.75;4915984;29;20536;-78
2023/10/09 02:42:23;;;;;;;8.73;4.25;;;;;;;12.18;51.76;95973.03;4936295;29;20103;-79
2023/10/09 02:44:51;;;;;;;10.63;4.50;;;;;;;12.20;51.62;95977.19;4915151;29;20728;-79
2023/10/09 02:47:29;;;;;;;8.75;4.85;;;;;;;12.11;51.99;95980.94;4918750;29;20267;-77
2023/10/09 02:50:08;;;;;;;9.35;4.43;;;;;;;11.93;52.45;95981.22;4927462;29;20043;-78
2023/10/09 02:52:40;;;;;;;8.27;4.57;;;;;;;12.11;51.97;95984.41;4899904;29;20035;-78
2023/10/09 02:55:14;;;;;;;7.47;4.43;;;;;;;12.35;51.70;95979.91;4886489;29;20048;-78
2023/10/09 02:57:41;;;;;;;10.43;4.80;;;;;;;12.25;51.91;95979.31;4909607;29;20455;-78
2023/10/09 03:00:18;;;;;;;9.85;4.53;;;;;;;12.53;51.20;95978.75;4935413;29;20031;-78
2023/10/09 03:02:49;;;;;;;9.95;4.43;;;;;;;12.62;51.12;95985.66;4890822;29;20063;-79
2023/10/09 03:05:15;;;;;;;8.73;4.25;;;;;;;12.42;51.88;95980.81;4911781;29;20633;-77
2023/10/09 03:07:42;;;;;;;7.22;3.88;;;;;;;12.26;52.50;95986.31;4932998;29;20049;-78
2023/10/09 03:10:09;;;;;;;10.10;4.43;;;;;;;12.33;52.25;95984.59;4939949;29;20097;-77
2023/10/09 03:12:35;;;;;;;8.18;4.25;;;;;;;12.44;51.90;95980.66;4905800;29;20130;-79
2023/10/09 03:15:02;;;;;;;8.10;4.10;;;;;;;12.40;51.92;95974.00;4921682;29;20062;-78
2023/10/09 03:17:27;;;;;;;10.60;4.38;;;;;;;12.63;51.28;95965.97;4903484;29;20096;-79
2023/10/09 03:19:53;;;;;;;9.93;3.95;;;;;;;12.35;52.07;95977.25;4938300;29;20562;-79
2023/10/09 03:22:19;;;;;;;7.65;4.30;;;;;;;12.46;52.19;95973.31;4926174;28;20507;-78
2023/10/09 03:24:49;;;;;;;8.02;4.63;;;;;;;12.43;52.41;95976.31;4890165;29;20246;-77
2023/10/09 03:27:15;;;;;;;12.55;4.60;;;;;;;12.49;52.02;95969.44;4935825;29;20126;-77
2023/10/09 03:29:41;;;;;;;7.97;4.82;;;;;;;12.26;52.46;95972.97;4917326;29;20150;-78
2023/10/09 03:32:07;;;;;;;9.40;4.40;;;;;;;12.30;52.57;95976.94;4917682;29;20042;-78
2023/10/09 03:34:32;;;;;;;9.82;4.68;;;;;;;12.34;52.28;95966.75;4908136;29;20074;-78
2023/10/09 03:37:04;;;;;;;7.55;4.50;;;;;;;12.06;53.01;95969.91;4933368;29;20038;-78
2023/10/09 03:39:47;;;;;;;8.95;4.68;;;;;;;12.14;53.26;95968.06;4900437;29;20085;-78
2023/10/09 03:42:19;;;;;;;9.18;4.85;;;;;;;12.01;53.58;95967.81;4919506;29;20870;-78
2023/10/09 03:44:49;;;;;;;8.70;4.47;;;;;;;11.97;53.45;95961.97;4912294;29;20046;-79
2023/10/09 03:47:16;;;;;;;12.32;4.50;;;;;;;11.97;53.36;95959.31;4919655;29;20116;-79
2023/10/09 03:49:43;;;;;;;9.73;4.65;;;;;;;11.84;53.97;95957.25;4894420;29;20646;-78
2023/10/09 03:52:09;;;;;;;10.45;4.47;;;;;;;11.83;53.96;95950.25;4912444;29;20061;-78
2023/10/09 03:54:35;;;;;;;9.82;4.15;;;;;;;12.03;53.29;95955.09;4903152;29;20074;-79
2023/10/09 03:57:01;;;;;;;10.23;4.82;;;;;;;11.82;54.13;95959.25;4919238;29;20053;-79
2023/10/09 03:59:30;;;;;;;11.70;4.50;;;;;;;11.82;53.88;95956.59;4911759;29;20065;-79
2023/10/09 04:01:57;;;;;;;9.35;4.28;;;;;;;11.84;54.02;95956.44;4916613;29;20928;-79
2023/10/09 04:04:23;;;;;;;10.48;4.60;;;;;;;11.91;53.70;95960.03;4899145;29;20047;-79
2023/10/09 04:06:49;;;;;;;7.70;4.28;;;;;;;11.99;53.48;95964.47;4879316;29;20150;-79
2023/10/09 04:14:33;;;;;;;7.72;4.20;;;;;;;11.63;54.88;95971.25;4931335;29;20602;-79
2023/10/09 04:17:32;;;;;;;7.13;4.30;;;;;;;11.84;54.58;95967.09;4918085;29;20032;-79
2023/10/09 04:22:50;;;;;;;8.13;4.32;;;;;;;11.90;54.68;95959.22;4917668;29;20099;-78
2023/10/09 04:25:25;;;;;;;8.05;4.30;;;;;;;11.87;54.84;95953.41;4899843;29;20629;-78
2023/10/09 04:28:08;;;;;;;8.50;4.55;;;;;;;12.02;54.91;95956.13;4893077;29;20047;-79
2023/10/09 04:30:42;;;;;;;8.55;4.45;;;;;;;11.72;55.60;95959.50;4917537;29;20107;-78
2023/10/09 04:34:21;;;;;;;10.40;4.70;;;;;;;11.95;55.22;95958.69;4913205;29;20126;-79
2023/10/09 04:36:46;;;;;;;14.55;5.07;;;;;;;11.52;57.11;95959.97;4908190;29;20058;-78
2023/10/09 04:42:19;;;;;;;9.25;4.40;;;;;;;10.80;59.63;95956.41;4914077;29;20039;-68
2023/10/09 04:44:29;;;;;;;10.80;4.38;;;;;;;10.57;60.31;95951.81;4899329;29;20051;-68
2023/10/09 04:57:37;;;;;;;9.38;4.20;;;;;;;10.52;61.54;95955.97;4926419;29;20073;-68
2023/10/09 05:00:22;;;;;;;10.23;5.05;;;;;;;10.57;61.62;95956.31;4930896;29;20027;-67
2023/10/09 05:03:12;;;;;;;13.77;5.50;;;;;;;10.74;61.15;95947.28;4927014;29;20054;-67
2023/10/09 05:08:28;;;;;;;9.35;4.45;;;;;;;10.83;60.97;95948.06;4922612;29;20045;-67
2023/10/09 05:16:25;;;;;;;8.55;4.18;;;;;;;10.45;62.48;95947.84;4924140;29;20128;-68
2023/10/09 05:18:56;;;;;;;11.23;5.63;;;;;;;10.66;62.25;95957.94;4930352;29;20065;-67
2023/10/09 05:37:25;;;;;;;13.10;5.13;;;;;;;10.58;62.24;95952.63;4909500;29;20120;-69
2023/10/09 05:42:42;;;;;;;10.57;5.57;;;;;;;10.16;63.60;95944.69;4910465;29;20069;-67
2023/10/09 05:46:07;;;;;;;11.50;5.60;;;;;;;10.33;63.21;95945.53;4912557;29;20037;-68
2023/10/09 06:08:26;;;;;;;11.55;5.88;;;;;;;10.77;60.34;95951.41;4920689;29;20064;-65
2023/10/09 06:11:05;;;;;;;9.10;5.10;;;;;;;10.69;60.47;95946.13;4920697;29;20266;-66
2023/10/09 06:13:37;;;;;;;8.60;4.30;;;;;;;10.45;61.18;95948.69;4911982;29;20039;-66
2023/10/09 06:16:19;;;;;;;11.00;5.50;;;;;;;11.09;59.29;95939.00;4914209;29;20535;-68
2023/10/09 06:18:54;;;;;;;10.75;4.70;;;;;;;11.11;59.15;95950.34;4914908;29;20096;-67
2023/10/09 06:26:51;;;;;;;11.10;4.45;;;;;;;10.59;59.93;95955.13;4913237;29;20070;-66
2023/10/09 06:29:33;;;;;;;7.60;4.65;;;;;;;10.67;59.57;95958.78;4912726;29;20126;-67
2023/10/09 06:32:05;;;;;;;9.20;4.43;;;;;;;10.58;59.49;95960.63;4925153;29;20100;-66
2023/10/09 06:34:35;;;;;;;9.43;5.63;;;;;;;10.70;59.40;95961.09;4917348;29;20157;-65
2023/10/09 06:37:17;;;;;;;6.13;3.78;;;;;;;10.12;60.63;95963.81;4931531;29;20042;-66
2023/10/09 06:45:17;;;;;;;11.38;5.55;;;;;;;11.00;58.16;95956.00;4924604;29;20051;-66
2023/10/09 06:56:05;;;;;;;6.88;4.13;;;;;;;10.56;58.24;95981.25;4935625;28;20035;-68
2023/10/09 06:58:41;;;;;;;7.72;4.55;;;;;;;10.69;58.39;95989.56;4924955;29;20583;-66
2023/10/09 07:03:54;;;;;;;7.43;3.25;;;;;;;10.86;57.23;95981.53;4926364;29;20193;-67
2023/10/09 07:16:57;;;;;;;12.40;4.53;;;;;;;11.32;56.17;95986.22;4920949;29;20036;-66
2023/10/09 07:22:23;;;;;;;9.00;4.78;;;;;;;11.53;56.06;95984.78;4921753;29;20082;-66
2023/10/09 07:24:58;;;;;;;8.77;3.58;;;;;;;10.98;57.68;96001.47;4918417;29;20063;-66
2023/10/09 07:38:14;;;;;;;10.50;5.05;;;;;;;11.57;57.53;96020.78;4902239;29;20040;-66
2023/10/09 07:40:56;;;;;;;10.40;4.05;;;;;;;12.07;56.31;96014.34;4912821;29;20039;-66
2023/10/09 07:43:39;;;;;;;7.85;4.13;;;;;;;12.37;55.30;96012.59;4927028;29;20074;-66
2023/10/09 07:48:52;;;;;;;7.30;4.28;;;;;;;12.19;55.73;96022.75;4924013;29;20141;-66
2023/10/09 07:51:19;;;;;;;8.80;3.83;;;;;;;11.99;56.36;96017.84;4912427;29;20122;-66
2023/10/09 07:53:45;;;;;;;8.65;4.07;;;;;;;12.01;56.95;96016.66;4923645;29;20758;-66
2023/10/09 07:56:20;;;;;;;7.00;3.92;;;;;;;11.99;56.90;96023.19;4926510;29;20046;-67
2023/10/09 07:58:46;;;;;;;9.02;4.70;;;;;;;12.50;55.64;96020.00;4927802;29;20138;-66
2023/10/09 08:04:04;;;;;;;8.43;3.60;;;;;;;12.08;56.09;96013.31;4922270;29;20773;-67
2023/10/09 08:06:39;;;;;;;9.35;4.47;;;;;;;12.46;55.09;96016.03;4924130;29;20079;-66
2023/10/09 08:19:54;;;;;;;7.85;3.85;;;;;;;12.22;55.33;96025.91;4933423;29;20102;-65
2023/10/09 08:24:58;;;;;;;11.75;3.92;;;;;;;12.80;54.53;96029.91;4913449;29;20588;-67
2023/10/09 08:33:00;;;;;;;8.68;4.45;;;;;;;13.40;51.84;96021.09;4926600;29;20042;-66
2023/10/09 08:35:47;;;;;;;11.27;4.30;;;;;;;12.93;53.72;96038.09;4930293;29;20285;-67
2023/10/09 08:38:13;;;;;;;8.27;4.40;;;;;;;12.66;53.65;96044.91;4916946;29;20401;-67
2023/10/09 08:40:42;;;;;;;8.57;4.18;;;;;;;12.70;53.50;96040.84;4923556;29;20040;-70
2023/10/09 08:43:16;;;;;;;10.00;4.82;;;;;;;12.77;53.60;96044.47;4914052;29;20066;-68
2023/10/09 08:45:48;;;;;;;9.27;3.60;;;;;;;12.71;54.16;96047.03;4916671;29;20039;-68
2023/10/09 08:48:17;;;;;;;9.52;4.30;;;;;;;12.83;54.34;96028.69;4911830;29;20641;-66
2023/10/09 08:50:44;;;;;;;9.80;4.30;;;;;;;13.05;53.12;96033.19;4909219;29;20050;-66
2023/10/09 08:53:10;;;;;;;7.57;4.43;;;;;;;13.24;52.94;96036.31;4920125;29;20042;-67
2023/10/09 08:55:39;;;;;;;7.80;4.28;;;;;;;13.05;54.05;96043.03;4909836;29;20044;-66
2023/10/09 08:58:18;;;;;;;10.20;4.03;;;;;;;12.78;54.04;96031.91;4895589;29;20086;-67
2023/10/09 09:00:45;;;;;;;10.02;4.40;;;;;;;12.67;52.83;96030.53;4909574;29;20122;-67
2023/10/09 09:03:22;;;;;;;7.05;3.78;;;;;;;12.10;54.66;96022.00;4909732;29;20637;-66
2023/10/09 09:05:56;;;;;;;9.60;4.67;;;;;;;12.84;53.54;96025.84;4911345;29;20060;-69
2023/10/09 09:08:26;;;;;;;11.40;4.75;;;;;;;12.05;54.89;96051.84;4910946;29;20603;-66
2023/10/09 09:14:07;;;;;;;8.32;4.30;;;;;;;12.62;54.71;96046.28;4909947;29;20517;-68
2023/10/09 09:16:35;;;;;;;8.05;4.53;;;;;;;12.56;54.11;96039.81;4910468;29;20053;-66
2023/10/09 09:21:48;;;;;;;10.90;5.22;;;;;;;13.09;52.57;96041.66;4909969;29;20038;-67
2023/10/09 09:26:59;;;;;;;12.93;5.13;;;;;;;13.27;52.14;96045.81;4909372;29;20092;-67
2023/10/09 09:29:37;;;;;;;7.28;3.97;;;;;;;12.91;53.26;96040.16;4909771;29;20060;-67
2023/10/09 09:32:19;;;;;;;;;;;;;;;12.85;53.86;96032.03;4895941;29;20723;-68
2023/10/09 09:34:49;;;;;;;10.40;4.70;;;;;;;13.39;52.43;96022.94;4910469;29;19985;-67
2023/10/09 09:37:24;;;;;;;9.25;4.57;;;;;;;13.43;52.10;96002.03;4909932;29;20039;-67
2023/10/09 09:39:49;;;;;;;9.27;4.60;;;;;;;13.38;51.80;96010.59;4910232;29;20145;-67
2023/10/09 09:42:15;;;;;;;10.80;4.25;;;;;;;12.86;54.71;96105.84;4909173;29;20453;-67
2023/10/09 09:44:43;;;;;;;10.23;3.95;;;;;;;12.25;56.62;96107.44;4895231;29;20035;-67
2023/10/09 09:47:09;;;;;;;;;;;;;;;12.72;56.20;96088.75;4910832;29;20039;-67
2023/10/09 09:49:38;;;;;;;7.10;4.13;;;;;;;13.12;54.95;96083.25;4909411;29;19994;-66
2023/10/09 09:52:09;;;;;;;10.40;4.45;;;;;;;13.00;55.75;96085.53;4892451;29;20056;-66
2023/10/09 09:54:37;;;;;;;7.18;3.92;;;;;;;13.36;53.02;96071.44;4908732;29;20117;-67
2023/10/09 09:57:08;;;;;;;8.82;4.90;;;;;;;13.64;53.22;96062.78;4894330;29;20043;-67
2023/10/09 09:59:40;;;;;;;13.18;5.80;;;;;;;14.13;52.06;96028.31;4909351;29;20047;-67
2023/10/09 10:02:08;;;;;;;8.52;4.55;;;;;;;13.79;51.64;96021.75;4907228;29;20050;-67
2023/10/09 10:04:37;;;;;;;10.35;5.20;;;;;;;14.25;49.83;96007.25;4892007;29;20046;-70
2023/10/09 10:07:09;;;;;;;11.55;5.05;;;;;;;14.29;50.38;96000.47;4894650;29;20050;-66
2023/10/09 10:09:38;;;;;;;11.23;4.93;;;;;;;14.48;49.76;95992.78;4915225;29;20114;-76
2023/10/09 10:12:09;;;;;;;9.90;5.80;;;;;;;14.53;49.07;95992.22;4910344;29;20027;-76
2023/10/09 10:14:58;;;;;;;12.82;6.35;;;;;;;15.16;47.87;95961.09;4901786;29;20464;-77
2023/10/09 10:17:24;;;;;;;9.55;5.10;;;;;;;15.69;46.54;95971.22;4919099;29;20039;-76
2023/10/09 10:20:41;;;;;;;10.07;5.57;;;;;;;15.91;45.99;95957.63;4907287;29;20035;-77
2023/10/09 10:23:20;;;;;;;12.70;6.68;;;;;;;15.39;47.33;95933.09;4911989;29;20052;-76
2023/10/09 10:25:49;;;;;;;14.25;5.93;;;;;;;16.06;44.66;95933.31;4933419;29;20082;-77
2023/10/09 10:29:05;;;;;;;12.38;5.72;;;;;;;15.65;46.37;95926.22;4908528;29;20107;-75
2023/10/09 10:31:09;;;;;;;10.35;5.28;;;;;;;15.74;45.54;95922.31;4908941;29;20085;-76
2023/10/09 10:33:54;;;;;;;15.23;5.85;;;;;;;15.26;46.84;95925.88;4925674;29;20028;-77
2023/10/09 10:36:23;;;;;;;10.02;6.00;;;;;;;15.69;45.60;95935.50;4925903;29;20059;-77
2023/10/09 10:41:54;;;;;;;11.98;5.60;;;;;;;16.82;43.96;95959.94;4929731;29;20046;-76
2023/10/09 10:44:41;;;;;;;10.52;5.03;;;;;;;16.74;44.61;95965.53;4922104;29;20034;-79
2023/10/09 10:47:22;;;;;;;11.02;4.68;;;;;;;16.92;43.36;95956.81;4918501;29;20097;-77
2023/10/09 10:49:50;;;;;;;8.23;4.45;;;;;;;16.06;43.83;95948.56;4914938;29;20039;-77
2023/10/09 10:52:22;;;;;;;9.05;4.38;;;;;;;15.76;44.29;95955.13;4899169;29;20027;-76
2023/10/09 10:55:17;;;;;;;10.07;5.10;;;;;;;16.21;44.23;95951.06;4915334;29;20070;-76
2023/10/09 10:57:53;;;;;;;10.10;4.28;;;;;;;16.06;43.36;95948.56;4901662;29;20052;-75
2023/10/09 11:03:18;;;;;;;6.20;3.63;;;;;;;16.10;44.51;95952.50;4894152;29;20067;-76
2023/10/09 11:05:50;;;;;;;9.52;4.57;;;;;;;16.54;42.80;95950.28;4890040;29;20062;-76
2023/10/09 11:08:18;;;;;;;9.48;4.00;;;;;;;16.55;41.29;95951.09;4898272;29;20753;-79
2023/10/09 11:10:50;;;;;;;6.05;3.58;;;;;;;16.17;41.71;95952.50;4898786;29;20165;-76
2023/10/09 11:13:52;;;;;;;11.80;4.50;;;;;;;16.55;41.33;95951.91;4885429;29;20150;-77
2023/10/09 11:16:41;;;;;;;8.18;4.00;;;;;;;16.93;39.98;95953.09;4897840;29;20056;-77
2023/10/09 11:19:22;;;;;;;8.15;4.20;;;;;;;17.21;39.73;95940.44;4898635;29;20781;-77
2023/10/09 11:21:53;;;;;;;7.45;3.95;;;;;;;16.92;40.12;95940.69;4883932;29;20035;-76
2023/10/09 11:24:25;;;;;;;13.25;4.43;;;;;;;17.25;41.03;95930.88;4898929;29;20031;-77
2023/10/09 11:26:55;;;;;;;8.25;4.32;;;;;;;17.53;39.69;95935.09;4899244;29;20144;-78
2023/10/09 11:29:31;;;;;;;7.90;4.43;;;;;;;17.93;39.08;95934.09;4880804;29;20032;-76
2023/10/09 11:32:09;;;;;;;9.63;4.07;;;;;;;18.15;38.75;95931.84;4897323;29;20114;-77
2023/10/09 11:34:35;;;;;;;6.22;3.72;;;;;;;18.03;37.95;95939.81;4912091;29;20119;-78
2023/10/09 11:37:15;;;;;;;8.60;3.92;;;;;;;18.27;38.32;95940.06;4882294;29;20130;-77
2023/10/09 11:39:59;;;;;;;7.28;4.10;;;;;;;17.57;37.80;95951.66;4898645;29;20051;-77
2023/10/09 11:45:20;;;;;;;8.95;3.92;;;;;;;17.44;38.54;95947.97;4917381;29;20037;-78
2023/10/09 11:48:00;;;;;;;9.23;4.20;;;;;;;17.13;39.30;95960.31;4911304;29;20123;-78
2023/10/09 11:51:18;;;;;;;7.20;3.80;;;;;;;16.76;38.76;95958.91;4888055;29;20043;-78
2023/10/09 11:54:00;;;;;;;7.65;3.65;;;;;;;16.56;39.73;95958.13;4903748;29;20043;-78
2023/10/09 11:56:27;;;;;;;6.63;3.88;;;;;;;16.85;39.46;95958.69;4911310;29;20127;-78
2023/10/09 11:58:54;;;;;;;5.88;3.53;;;;;;;16.09;39.75;95964.28;4912995;29;20568;-78
2023/10/09 12:01:23;;;;;;;8.90;4.47;;;;;;;16.15;41.01;95958.09;4910985;29;20641;-78
2023/10/09 12:03:53;;;;;;;9.95;4.43;;;;;;;16.53;40.40;95951.31;4911658;29;20066;-78
2023/10/09 12:06:32;;;;;;;5.78;3.45;;;;;;;16.72;40.76;95956.84;4875643;29;20115;-78
2023/10/09 12:08:58;;;;;;;6.93;3.75;;;;;;;16.52;40.90;95955.84;4865892;29;20677;-78
2023/10/09 12:11:28;;;;;;;8.10;4.13;;;;;;;16.54;40.44;95962.88;4861830;29;20056;-78
2023/10/09 12:13:56;;;;;;;8.90;4.25;;;;;;;16.44;40.62;95955.22;4877733;29;20577;-78
2023/10/09 12:16:22;;;;;;;7.47;4.07;;;;;;;16.57;40.75;95954.41;4898604;29;20027;-78
2023/10/09 12:18:52;;;;;;;8.55;4.18;;;;;;;17.23;40.28;95952.63;4893954;29;20108;-78
2023/10/09 12:21:18;;;;;;;7.40;4.00;;;;;;;17.67;39.09;95943.94;4877180;29;20040;-78
2023/10/09 12:23:47;;;;;;;8.30;4.45;;;;;;;17.31;39.71;95942.66;4861434;29;20876;-78
2023/10/09 12:26:14;;;;;;;7.47;4.18;;;;;;;17.88;38.74;95948.19;4860436;29;20411;-78
2023/10/09 12:28:50;;;;;;;10.23;4.25;;;;;;;17.57;38.83;95943.59;4876213;29;20040;-78
2023/10/09 12:31:16;;;;;;;7.10;4.03;;;;;;;17.30;38.16;95943.72;4891745;29;20048;-78
2023/10/09 12:33:41;;;;;;;8.48;4.28;;;;;;;17.68;38.77;95940.22;4861691;29;20035;-78
2023/10/09 12:36:17;;;;;;;7.18;3.80;;;;;;;17.41;38.83;95940.34;4894684;29;20562;-78
2023/10/09 12:38:46;;;;;;;7.03;3.70;;;;;;;17.41;38.35;95945.72;4893333;29;20060;-78
2023/10/09 12:41:25;;;;;;;8.65;4.10;;;;;;;17.33;39.18;95945.97;4864085;29;20677;-78
2023/10/09 12:43:51;;;;;;;6.22;3.83;;;;;;;16.99;39.23;95941.50;4892736;29;21571;-78
2023/10/09 12:46:23;;;;;;;6.18;3.55;;;;;;;16.93;39.16;95936.16;4875844;29;20544;-78
2023/10/09 12:48:49;;;;;;;7.75;4.03;;;;;;;17.20;38.75;95942.28;4893896;29;20165;-78
2023/10/09 12:51:17;;;;;;;6.28;3.53;;;;;;;16.54;39.74;95936.00;4860266;29;20480;-78
2023/10/09 12:53:43;;;;;;;12.07;4.35;;;;;;;16.76;40.20;95925.84;4875801;29;20092;-79
2023/10/09 12:56:11;;;;;;;8.40;4.25;;;;;;;16.57;40.35;95924.84;4876930;29;20062;-77
2023/10/09 12:58:37;;;;;;;;;;;;;;;16.16;41.16;95930.22;4861830;29;20495;-78
2023/10/09 13:01:09;;;;;;;9.70;3.80;;;;;;;16.27;41.00;95936.81;4893031;29;19930;-77
2023/10/09 13:03:38;;;;;;;5.80;3.70;;;;;;;16.16;40.92;95943.63;4874788;29;20635;-78
2023/10/09 13:06:07;;;;;;;8.40;4.30;;;;;;;16.82;40.48;95941.13;4870680;29;20040;-78
2023/10/09 13:08:36;;;;;;;8.25;3.92;;;;;;;16.75;40.74;95943.84;4927782;29;20038;-78
2023/10/09 13:11:11;;;;;;;8.88;3.88;;;;;;;16.52;40.66;95947.78;4903998;29;20059;-77
2023/10/09 13:13:40;;;;;;;8.85;4.10;;;;;;;16.63;41.03;95945.50;4903980;29;20097;-78
2023/10/09 13:16:24;;;;;;;7.43;3.97;;;;;;;16.65;41.65;95940.75;4900450;29;20035;-78
2023/10/09 13:18:51;;;;;;;7.97;3.95;;;;;;;16.67;41.28;95941.38;4901367;29;20071;-77
2023/10/09 13:21:26;;;;;;;8.35;3.92;;;;;;;17.05;40.20;95945.22;4897954;29;20038;-78
2023/10/09 13:23:54;;;;;;;7.55;3.95;;;;;;;17.41;40.68;95937.66;4911579;29;20043;-78
2023/10/09 13:26:24;;;;;;;;;;;;;;;17.38;40.46;95932.69;4889249;29;20044;-78
2023/10/09 13:28:51;;;;;;;9.13;4.18;;;;;;;17.06;41.25;95937.97;4892140;29;20417;-78
2023/10/09 13:31:17;;;;;;;7.38;4.05;;;;;;;16.79;41.56;95928.09;4900225;29;20372;-78
2023/10/09 13:33:42;;;;;;;7.30;4.15;;;;;;;17.10;40.59;95928.44;4919385;29;20043;-78
2023/10/09 13:39:26;;;;;;;8.10;3.95;;;;;;;16.93;42.29;95947.72;4907898;29;20371;-78
2023/10/09 13:41:58;;;;;;;9.55;4.03;;;;;;;16.95;41.78;95937.59;4922347;29;20090;-78
2023/10/09 13:44:30;;;;;;;11.45;4.28;;;;;;;17.19;41.07;95937.09;4890734;29;20043;-78
2023/10/09 13:47:04;;;;;;;6.88;3.55;;;;;;;16.80;41.85;95945.06;4919866;29;20040;-78
2023/10/09 13:49:30;;;;;;;10.63;4.18;;;;;;;17.31;41.75;95942.66;4920585;29;20094;-78
2023/10/09 13:51:56;;;;;;;9.15;4.00;;;;;;;16.99;42.43;95948.72;4904941;29;20047;-78
2023/10/09 13:54:28;;;;;;;11.63;4.28;;;;;;;17.05;42.33;95960.50;4888447;29;20789;-78
2023/10/09 13:56:56;;;;;;;8.90;3.85;;;;;;;17.10;41.80;95956.16;4906427;29;20042;-78
2023/10/09 13:59:25;;;;;;;9.30;4.35;;;;;;;17.37;41.71;95961.47;4910603;29;20878;-78
2023/10/09 14:01:56;;;;;;;9.82;4.40;;;;;;;17.53;41.29;95964.72;4891995;29;20107;-78
2023/10/09 14:04:26;;;;;;;8.63;4.70;;;;;;;17.71;41.08;95964.00;4912107;29;20035;-78
2023/10/09 14:06:58;;;;;;;8.82;3.97;;;;;;;17.38;40.94;95971.19;4895412;29;20040;-78
2023/10/09 14:09:44;;;;;;;7.97;4.60;;;;;;;18.09;40.84;95966.91;4907307;29;20031;-78
2023/10/09 14:12:10;;;;;;;7.27;3.90;;;;;;;17.89;40.89;95960.63;4924336;29;21641;-78
2023/10/09 14:14:49;;;;;;;7.70;3.80;;;;;;;17.45;41.30;95970.34;4901058;29;20407;-78
2023/10/09 14:17:14;;;;;;;7.57;4.03;;;;;;;17.30;41.37;95967.94;4897412;29;20099;-77
2023/10/09 14:19:41;;;;;;;8.15;4.03;;;;;;;17.45;40.32;95963.09;4912844;29;20040;-77
2023/10/09 14:22:07;;;;;;;11.70;4.43;;;;;;;17.35;40.53;95950.09;4902599;29;20043;-77
2023/10/09 14:24:37;;;;;;;8.30;4.07;;;;;;;17.17;41.40;95958.03;4902787;29;20038;-77
2023/10/09 14:27:04;;;;;;;9.23;4.47;;;;;;;18.07;39.37;95945.59;4911877;29;20036;-77
2023/10/09 14:29:37;;;;;;;7.88;3.92;;;;;;;18.49;39.04;95953.13;4888521;29;20083;-77
2023/10/09 14:32:03;;;;;;;6.35;3.83;;;;;;;18.15;39.16;95957.97;4884050;29;20075;-77
2023/10/09 14:34:32;;;;;;;10.68;4.32;;;;;;;18.45;38.31;95968.09;4911594;29;20557;-77
2023/10/09 14:37:01;;;;;;;10.20;3.92;;;;;;;18.44;38.21;95972.69;4912061;29;20043;-77
2023/10/09 14:39:29;;;;;;;9.57;4.03;;;;;;;18.98;37.76;95968.69;4913401;29;20673;-77
2023/10/09 14:41:57;;;;;;;8.95;4.40;;;;;;;19.25;37.19;95954.91;4897302;29;20047;-77
2023/10/09 14:44:23;;;;;;;8.35;4.45;;;;;;;19.65;36.01;95953.59;4896408;29;20043;-77
2023/10/09 14:46:49;;;;;;;10.80;4.20;;;;;;;20.11;35.73;95955.88;4899395;29;20031;-77
2023/10/09 14:49:14;;;;;;;11.55;4.15;;;;;;;20.29;35.17;95952.28;4916189;29;20492;-77
2023/10/09 14:51:40;;;;;;;13.80;4.50;;;;;;;20.72;34.05;95939.53;4917929;29;20511;-77
2023/10/09 14:54:07;;;;;;;9.27;4.43;;;;;;;20.64;34.21;95949.88;4918999;29;20043;-77